createdAt,value
2022-10-21T03:54:57.211Z,16.57
2022-10-21T03:57:23.629Z,16.08
2022-10-21T03:59:50.062Z,15.98
2022-10-21T04:02:16.520Z,20.27
2022-10-21T04:04:43.246Z,17.60
2022-10-21T04:07:10.161Z,18.77
2022-10-21T04:09:36.582Z,14.35
2022-10-21T04:12:03.197Z,16.13
2022-10-21T04:14:29.619Z,16.15
2022-10-21T04:17:06.413Z,14.32
2022-10-21T04:19:33.744Z,14.83
2022-10-21T04:22:00.168Z,15.68
2022-10-21T04:24:26.578Z,16.10
2022-10-21T04:26:53.014Z,14.98
2022-10-21T04:29:19.458Z,16.02
2022-10-21T04:31:45.932Z,17.77
2022-10-21T04:34:12.510Z,15.48
2022-10-21T04:36:38.917Z,14.85
2022-10-21T04:39:05.663Z,16.33
2022-10-21T04:41:32.163Z,15.13
2022-10-21T04:43:58.690Z,16.73
2022-10-21T04:46:25.147Z,13.77
2022-10-21T04:48:51.550Z,13.80
2022-10-21T04:51:17.963Z,15.98
2022-10-21T04:53:44.515Z,13.40
2022-10-21T04:56:11.097Z,16.10
2022-10-21T04:58:37.536Z,17.60
2022-10-21T05:01:04.325Z,16.75
2022-10-21T05:03:31.017Z,14.18
2022-10-21T05:05:57.422Z,13.48
2022-10-21T05:08:23.826Z,15.57
2022-10-21T05:10:57.214Z,15.00
2022-10-21T05:13:23.619Z,14.23
2022-10-21T05:15:50.073Z,16.42
2022-10-21T05:18:16.494Z,14.45
2022-10-21T05:20:42.910Z,16.40
2022-10-21T05:23:09.301Z,16.73
2022-10-21T05:25:35.697Z,16.80
2022-10-21T05:28:02.130Z,16.60
2022-10-21T05:30:28.585Z,16.90
2022-10-21T05:32:55.102Z,16.37
2022-10-21T05:35:21.501Z,15.50
2022-10-21T05:37:47.906Z,18.38
2022-10-21T05:40:14.311Z,14.90
2022-10-21T05:42:41.085Z,14.18
2022-10-21T05:45:08.302Z,15.97
2022-10-21T05:47:34.713Z,17.75
2022-10-21T05:50:01.128Z,18.85
2022-10-21T05:52:27.569Z,20.70
2022-10-21T05:54:53.980Z,19.13
2022-10-21T05:57:20.456Z,18.63
2022-10-21T05:59:46.864Z,17.52
2022-10-21T06:02:13.259Z,24.02
2022-10-21T06:04:39.682Z,18.48
2022-10-21T06:07:06.420Z,21.38
2022-10-21T06:09:32.847Z,21.40
2022-10-21T06:11:59.387Z,16.52
2022-10-21T06:14:26.583Z,17.58
2022-10-21T06:16:52.978Z,19.00
2022-10-21T06:19:19.393Z,19.08
2022-10-21T06:21:47.545Z,19.87
2022-10-21T06:24:14.034Z,17.85
2022-10-21T06:26:40.442Z,21.40
2022-10-21T06:29:07.185Z,21.45
2022-10-21T06:31:33.798Z,16.33
2022-10-21T06:34:00.278Z,19.23
2022-10-21T06:36:26.677Z,16.08
2022-10-21T06:38:53.110Z,19.50
2022-10-21T06:41:19.737Z,22.30
2022-10-21T06:43:46.245Z,20.92
2022-10-21T06:46:14.277Z,22.33
2022-10-21T06:48:41.061Z,17.45
2022-10-21T06:51:10.553Z,20.55
2022-10-21T06:53:39.212Z,18.67
2022-10-21T06:56:16.523Z,17.85
2022-10-21T06:58:46.241Z,20.37
2022-10-21T07:08:57.255Z,26.98
2022-10-21T07:11:24.695Z,17.63
2022-10-21T07:13:52.192Z,17.50
2022-10-21T07:16:24.370Z,16.23
2022-10-21T07:18:50.861Z,17.48
2022-10-21T07:21:19.856Z,18.80
2022-10-21T07:23:48.942Z,17.42
2022-10-21T07:26:15.592Z,18.63
2022-10-21T07:28:43.324Z,17.52
2022-10-21T07:31:09.729Z,19.67
2022-10-21T07:33:36.261Z,16.50
2022-10-21T07:36:15.827Z,15.32
2022-10-21T07:38:46.480Z,14.73
2022-10-21T07:41:21.302Z,16.55
2022-10-21T07:43:48.278Z,16.17
2022-10-21T07:46:15.134Z,14.90
2022-10-21T07:48:41.529Z,14.23
2022-10-21T07:51:10.965Z,14.00
2022-10-21T07:53:37.906Z,17.65
2022-10-21T07:56:10.833Z,15.60
2022-10-21T07:58:37.270Z,13.23
2022-10-21T08:01:06.029Z,15.95
2022-10-21T08:03:33.212Z,15.10
2022-10-21T08:06:00.123Z,16.65
2022-10-21T08:08:27.339Z,15.10
2022-10-21T08:10:54.626Z,13.82
2022-10-21T08:13:21.642Z,14.20
2022-10-21T08:15:50.468Z,12.60
2022-10-21T08:18:17.082Z,16.88
2022-10-21T08:20:44.789Z,14.98
2022-10-21T08:23:12.570Z,14.25
2022-10-21T08:25:39.457Z,15.85
2022-10-21T08:28:06.565Z,15.13
2022-10-21T08:30:33.284Z,15.50
2022-10-21T08:32:59.754Z,14.95
2022-10-21T08:35:27.294Z,14.23
2022-10-21T08:37:54.120Z,16.38
2022-10-21T08:40:21.572Z,17.07
2022-10-21T08:42:48.296Z,14.30
2022-10-21T08:45:26.173Z,13.75
2022-10-21T08:47:56.278Z,13.73
2022-10-21T08:50:25.373Z,13.63
2022-10-21T08:52:58.382Z,17.83
2022-10-21T08:55:36.609Z,11.70
2022-10-21T08:58:04.522Z,14.68
2022-10-21T09:00:47.219Z,17.50
2022-10-21T09:03:55.814Z,12.20
2022-10-21T09:06:33.756Z,10.97
2022-10-21T09:09:15.784Z,14.32
2022-10-21T09:11:57.372Z,13.63
2022-10-21T09:14:56.644Z,12.80
2022-10-21T09:17:35.315Z,11.02
2022-10-21T09:20:04.553Z,9.13
2022-10-21T09:22:55.356Z,10.88
2022-10-21T09:25:24.717Z,9.32
2022-10-21T09:27:56.578Z,8.85
2022-10-21T09:30:24.314Z,9.00
2022-10-21T09:32:56.129Z,9.27
2022-10-21T09:35:32.387Z,11.52
2022-10-21T09:38:26.146Z,8.57
2022-10-21T09:40:59.201Z,10.48
2022-10-21T09:43:26.746Z,12.70
2022-10-21T09:45:53.919Z,9.43
2022-10-21T09:48:20.284Z,11.65
2022-10-21T09:50:50.418Z,10.70
2022-10-21T09:53:34.868Z,8.38
2022-10-21T09:56:05.116Z,11.75
2022-10-21T09:58:37.722Z,9.53
2022-10-21T10:01:05.471Z,10.20
2022-10-21T10:03:42.637Z,7.70
2022-10-21T10:06:10.042Z,9.45
2022-10-21T10:08:40.383Z,12.60
2022-10-21T10:11:09.618Z,8.47
2022-10-21T10:13:37.941Z,10.10
2022-10-21T10:16:26.181Z,8.85
2022-10-21T10:19:14.663Z,10.35
2022-10-21T10:21:41.110Z,9.40
2022-10-21T10:24:16.509Z,7.80
2022-10-21T10:26:43.511Z,10.35
2022-10-21T10:29:15.934Z,8.98
2022-10-21T10:31:50.571Z,8.73
2022-10-21T10:34:23.578Z,10.35
2022-10-21T10:37:06.242Z,7.60
2022-10-21T10:39:35.182Z,8.07
2022-10-21T10:42:01.958Z,6.80
2022-10-21T10:44:36.930Z,8.43
2022-10-21T10:47:04.602Z,10.90
2022-10-21T10:49:37.876Z,10.67
2022-10-21T10:52:06.664Z,6.95
2022-10-21T10:54:37.218Z,9.65
2022-10-21T10:57:06.174Z,7.93
2022-10-21T10:59:36.771Z,8.63
2022-10-21T11:02:11.652Z,9.03
2022-10-21T11:05:04.285Z,7.90
2022-10-21T11:07:46.366Z,9.90
2022-10-21T11:10:31.746Z,9.82
2022-10-21T11:12:59.809Z,5.97
2022-10-21T11:15:53.482Z,10.67
2022-10-21T11:18:45.485Z,11.27
2022-10-21T11:21:24.134Z,10.68
2022-10-21T11:24:18.674Z,10.05
2022-10-21T11:27:13.446Z,11.45
2022-10-21T11:29:59.014Z,8.87
2022-10-21T11:32:30.786Z,9.40
2022-10-21T11:35:18.898Z,6.80
2022-10-21T11:38:23.071Z,8.65
2022-10-21T11:40:54.269Z,7.22
2022-10-21T11:43:38.522Z,8.30
2022-10-21T11:46:30.056Z,9.32
2022-10-21T11:49:21.711Z,7.57
2022-10-21T11:51:52.687Z,8.30
2022-10-21T11:54:37.301Z,9.88
2022-10-21T11:57:33.674Z,6.57
2022-10-21T12:00:13.691Z,8.77
2022-10-21T12:02:44.144Z,7.90
2022-10-21T12:05:25.951Z,9.18
2022-10-21T12:07:55.761Z,8.38
2022-10-21T12:10:36.575Z,8.83
2022-10-21T12:13:36.880Z,9.45
2022-10-21T12:16:10.463Z,8.82
2022-10-21T12:18:45.114Z,7.28
2022-10-21T12:21:17.901Z,8.57
2022-10-21T12:23:45.270Z,7.20
2022-10-21T12:29:17.269Z,8.52
2022-10-21T12:32:21.131Z,7.03
2022-10-21T12:34:47.737Z,8.70
2022-10-21T12:37:50.909Z,10.57
2022-10-21T12:40:38.435Z,7.30
2022-10-21T12:43:15.303Z,9.88
2022-10-21T12:45:41.853Z,9.05
2022-10-21T12:48:28.574Z,11.43
2022-10-21T12:51:00.196Z,10.40
2022-10-21T12:53:42.683Z,9.57
2022-10-21T12:56:09.946Z,9.93
2022-10-21T12:58:41.289Z,12.30
2022-10-21T13:01:35.609Z,9.95
2022-10-21T13:04:02.354Z,9.07
2022-10-21T13:06:50.202Z,11.23
2022-10-21T13:09:41.722Z,9.05
2022-10-21T13:12:08.081Z,9.77
2022-10-21T13:14:51.657Z,7.80
2022-10-21T13:17:22.070Z,11.10
2022-10-21T13:19:49.621Z,8.20
2022-10-21T13:22:22.190Z,14.13
2022-10-21T13:24:49.269Z,9.48
2022-10-21T13:30:02.681Z,8.73
2022-10-21T13:32:37.304Z,8.13
2022-10-21T13:35:19.166Z,10.70
2022-10-21T13:38:04.005Z,10.02
2022-10-21T13:40:39.250Z,9.52
2022-10-21T13:43:12.115Z,7.40
2022-10-21T13:45:47.095Z,8.02
2022-10-21T13:48:21.301Z,7.93
2022-10-21T13:50:49.409Z,9.48
2022-10-21T13:53:35.425Z,10.07
2022-10-21T13:56:04.806Z,12.07
2022-10-21T13:58:38.881Z,11.38
2022-10-21T14:01:11.034Z,8.73
2022-10-21T14:03:37.641Z,9.23
2022-10-21T14:06:05.361Z,9.27
2022-10-21T14:08:43.275Z,7.90
2022-10-21T14:11:20.085Z,7.15
2022-10-21T14:13:47.464Z,7.88
2022-10-21T14:16:41.248Z,10.38
2022-10-21T14:19:10.262Z,9.18
2022-10-21T14:21:38.646Z,7.83
2022-10-21T14:24:05.615Z,7.63
2022-10-21T14:26:32.603Z,9.15
2022-10-21T14:29:00.878Z,11.55
2022-10-21T14:31:27.693Z,10.18
2022-10-21T14:33:54.158Z,9.97
2022-10-21T14:36:24.896Z,8.52
2022-10-21T14:38:59.076Z,9.82
2022-10-21T14:41:29.366Z,9.48
2022-10-21T14:43:59.068Z,8.60
2022-10-21T14:46:25.690Z,8.93
2022-10-21T14:48:59.757Z,8.10
2022-10-21T14:51:27.075Z,9.40
2022-10-21T14:53:58.899Z,8.50
2022-10-21T14:56:30.709Z,11.35
2022-10-21T14:58:58.829Z,8.27
2022-10-21T15:01:25.854Z,11.27
2022-10-21T15:03:57.925Z,6.72
2022-10-21T15:06:34.804Z,11.45
2022-10-21T15:09:04.916Z,8.65
2022-10-21T15:11:35.011Z,8.43
2022-10-21T15:14:13.310Z,11.23
2022-10-21T15:16:54.194Z,10.63
2022-10-21T15:19:27.241Z,9.85
2022-10-21T15:21:58.885Z,9.80
2022-10-21T15:24:40.252Z,10.93
2022-10-21T15:27:06.710Z,10.88
2022-10-21T15:29:36.386Z,10.90
2022-10-21T15:32:04.117Z,10.57
2022-10-21T15:34:30.558Z,9.32
2022-10-21T15:36:57.024Z,13.37
2022-10-21T15:39:23.561Z,8.70
2022-10-21T15:41:54.850Z,11.82
2022-10-21T15:44:28.713Z,9.32
2022-10-21T15:47:00.454Z,10.10
2022-10-21T15:49:30.986Z,12.23
2022-10-21T15:51:57.391Z,10.70
2022-10-21T15:54:23.907Z,10.80
2022-10-21T15:56:52.691Z,9.68
2022-10-21T15:59:21.971Z,10.70
2022-10-21T16:01:49.121Z,11.60
2022-10-21T16:04:16.266Z,11.20
2022-10-21T16:06:48.192Z,9.43
2022-10-21T16:09:20.579Z,10.90
2022-10-21T16:11:59.095Z,11.48
2022-10-21T16:14:29.544Z,9.43
2022-10-21T16:16:58.255Z,9.07
2022-10-21T16:19:24.670Z,12.23
2022-10-21T16:21:51.081Z,14.90
2022-10-21T16:24:17.665Z,14.18
2022-10-21T16:26:46.663Z,10.53
2022-10-21T16:31:48.565Z,15.68
2022-10-21T16:34:15.084Z,13.18
2022-10-21T16:36:42.923Z,10.82
2022-10-21T16:39:18.053Z,9.50
2022-10-21T16:41:44.538Z,11.68
2022-10-21T16:44:11.073Z,14.13
2022-10-21T16:46:40.615Z,12.30
2022-10-21T16:49:13.050Z,11.48
2022-10-21T16:51:43.526Z,10.70
2022-10-21T16:54:10.608Z,13.82
2022-10-21T16:56:37.088Z,11.95
2022-10-21T16:59:04.723Z,13.40
2022-10-21T17:01:31.282Z,13.43
2022-10-21T17:03:57.766Z,12.30
2022-10-21T17:06:26.020Z,13.38
2022-10-21T17:08:54.173Z,11.50
2022-10-21T17:11:33.496Z,12.45
2022-10-21T17:14:00.965Z,14.70
2022-10-21T17:16:27.514Z,13.03
2022-10-21T17:18:53.928Z,14.73
2022-10-21T17:21:23.181Z,12.15
2022-10-21T17:23:50.511Z,13.95
2022-10-21T17:26:17.745Z,15.63
2022-10-21T17:28:44.613Z,16.47
2022-10-21T17:31:15.805Z,15.25
2022-10-21T17:33:42.497Z,12.00
2022-10-21T17:36:09.025Z,11.88
2022-10-21T17:38:35.441Z,13.32
2022-10-21T17:41:01.866Z,12.30
2022-10-21T17:43:28.287Z,11.13
2022-10-21T17:45:54.698Z,13.52
2022-10-21T17:48:21.153Z,11.77
2022-10-21T17:50:53.786Z,15.32
2022-10-21T17:53:20.221Z,12.37
2022-10-21T17:55:58.681Z,14.02
2022-10-21T17:58:25.743Z,14.38
2022-10-21T18:00:52.571Z,17.33
2022-10-21T18:03:19.108Z,17.27
2022-10-21T18:05:46.608Z,16.00
2022-10-21T18:08:13.024Z,15.32
2022-10-21T18:10:39.518Z,13.48
2022-10-21T18:13:06.182Z,15.40
2022-10-21T18:15:32.714Z,12.20
2022-10-21T18:17:59.174Z,11.10
2022-10-21T18:20:25.646Z,13.20
2022-10-21T18:22:52.568Z,14.52
2022-10-21T18:25:18.994Z,13.10
2022-10-21T18:27:45.438Z,13.88
2022-10-21T18:30:12.062Z,15.57
2022-10-21T18:32:39.045Z,13.50
2022-10-21T18:35:06.273Z,12.52
2022-10-21T18:37:33.939Z,18.70
2022-10-21T18:40:00.390Z,17.42
2022-10-21T18:42:26.869Z,16.83
2022-10-21T18:44:53.298Z,16.45
2022-10-21T18:47:19.764Z,18.40
2022-10-21T18:49:46.210Z,14.50
2022-10-21T18:52:13.472Z,15.60
2022-10-21T18:54:39.934Z,15.27
2022-10-21T18:57:09.789Z,13.82
2022-10-21T18:59:36.402Z,13.50
2022-10-21T19:02:03.893Z,14.48
2022-10-21T19:04:30.568Z,14.60
2022-10-21T19:06:57.329Z,14.17
2022-10-21T19:09:28.776Z,15.65
2022-10-21T19:11:55.214Z,12.50
2022-10-21T19:14:21.669Z,15.07
2022-10-21T19:16:48.535Z,15.90
2022-10-21T19:19:16.061Z,16.57
2022-10-21T19:21:42.510Z,15.40
2022-10-21T19:24:09.832Z,15.85
2022-10-21T19:26:37.984Z,13.93
2022-10-21T19:29:07.537Z,17.80
2022-10-21T19:31:37.638Z,13.80
2022-10-21T19:34:05.179Z,14.93
2022-10-21T19:36:31.581Z,15.35
2022-10-21T19:38:58.067Z,17.67
2022-10-21T19:41:24.470Z,17.52
2022-10-21T19:43:54.733Z,17.13
2022-10-21T19:46:25.513Z,14.65
2022-10-21T19:48:52.634Z,16.58
2022-10-21T19:51:21.281Z,15.95
2022-10-21T19:53:48.633Z,15.10
2022-10-21T19:56:15.913Z,14.57
2022-10-21T19:58:46.869Z,17.42
